sensor_id;sensor_type;location;lat;lon;timestamp;pressure;altitude;pressure_sealevel;temperature;humidity
40998;BME280;26740;45.944;12.480;2024-03-17T00:01:45;101736.91;;;7.52;100.00
40998;BME280;26740;45.944;12.480;2024-03-17T00:04:11;101740.28;;;7.48;100.00
40998;BME280;26740;45.944;12.480;2024-03-17T00:06:36;101743.25;;;7.53;100.00
40998;BME280;26740;45.944;12.480;2024-03-17T00:09:02;101740.94;;;7.56;100.00
40998;BME280;26740;45.944;12.480;2024-03-17T00:11:32;101733.28;;;7.52;100.00
40998;BME280;26740;45.944;12.480;2024-03-17T00:14:03;101741.59;;;7.52;100.00
40998;BME280;26740;45.944;12.480;2024-03-17T00:16:30;101739.66;;;7.52;100.00
40998;BME280;26740;45.944;12.480;2024-03-17T00:18:56;101750.91;;;7.51;100.00
40998;BME280;26740;45.944;12.480;2024-03-17T00:21:22;101747.50;;;7.42;100.00
40998;BME280;26740;45.944;12.480;2024-03-17T00:23:48;101746.63;;;7.35;100.00
40998;BME280;26740;45.944;12.480;2024-03-17T00:26:17;101747.47;;;7.29;100.00
40998;BME280;26740;45.944;12.480;2024-03-17T00:28:45;101748.13;;;7.31;100.00
40998;BME280;26740;45.944;12.480;2024-03-17T00:31:13;101746.44;;;7.36;100.00
40998;BME280;26740;45.944;12.480;2024-03-17T00:33:41;101748.34;;;7.36;100.00
40998;BME280;26740;45.944;12.480;2024-03-17T00:36:06;101744.28;;;7.32;100.00
40998;BME280;26740;45.944;12.480;2024-03-17T00:38:32;101748.09;;;7.24;100.00
40998;BME280;26740;45.944;12.480;2024-03-17T00:40:58;101747.88;;;7.19;100.00
40998;BME280;26740;45.944;12.480;2024-03-17T00:43:24;101743.59;;;7.16;100.00
40998;BME280;26740;45.944;12.480;2024-03-17T00:45:52;101742.78;;;7.22;100.00
40998;BME280;26740;45.944;12.480;2024-03-17T00:48:18;101739.38;;;7.20;100.00
40998;BME280;26740;45.944;12.480;2024-03-17T00:50:44;101735.97;;;7.25;100.00
40998;BME280;26740;45.944;12.480;2024-03-17T00:53:13;101739.78;;;7.17;100.00
40998;BME280;26740;45.944;12.480;2024-03-17T00:55:39;101734.25;;;7.17;100.00
40998;BME280;26740;45.944;12.480;2024-03-17T00:58:05;101736.63;;;7.20;100.00
40998;BME280;26740;45.944;12.480;2024-03-17T01:00:31;101733.41;;;7.10;100.00
40998;BME280;26740;45.944;12.480;2024-03-17T01:02:58;101741.28;;;7.13;100.00
40998;BME280;26740;45.944;12.480;2024-03-17T01:05:24;101745.53;;;7.16;100.00
40998;BME280;26740;45.944;12.480;2024-03-17T01:07:50;101745.06;;;7.06;100.00
40998;BME280;26740;45.944;12.480;2024-03-17T01:10:15;101730.81;;;7.02;100.00
40998;BME280;26740;45.944;12.480;2024-03-17T01:12:41;101732.06;;;6.93;100.00
40998;BME280;26740;45.944;12.480;2024-03-17T01:15:07;101731.59;;;6.82;100.00
40998;BME280;26740;45.944;12.480;2024-03-17T01:17:33;101731.44;;;6.97;100.00
40998;BME280;26740;45.944;12.480;2024-03-17T01:19:59;101714.66;;;6.92;100.00
40998;BME280;26740;45.944;12.480;2024-03-17T01:22:25;101718.66;;;6.83;100.00
40998;BME280;26740;45.944;12.480;2024-03-17T01:24:50;101722.69;;;6.87;100.00
40998;BME280;26740;45.944;12.480;2024-03-17T01:27:16;101734.63;;;6.94;100.00
40998;BME280;26740;45.944;12.480;2024-03-17T01:29:45;101731.63;;;6.89;100.00
40998;BME280;26740;45.944;12.480;2024-03-17T01:32:10;101728.63;;;6.84;100.00
40998;BME280;26740;45.944;12.480;2024-03-17T01:34:39;101733.09;;;6.85;100.00
40998;BME280;26740;45.944;12.480;2024-03-17T01:37:04;101729.13;;;7.01;100.00
40998;BME280;26740;45.944;12.480;2024-03-17T01:39:30;101732.25;;;6.91;100.00
40998;BME280;26740;45.944;12.480;2024-03-17T01:41:58;101736.66;;;6.79;100.00
40998;BME280;26740;45.944;12.480;2024-03-17T01:44:28;101735.81;;;6.78;100.00
40998;BME280;26740;45.944;12.480;2024-03-17T01:46:55;101737.56;;;6.86;100.00
40998;BME280;26740;45.944;12.480;2024-03-17T01:49:22;101736.09;;;6.97;100.00
40998;BME280;26740;45.944;12.480;2024-03-17T01:51:49;101737.75;;;6.84;100.00
40998;BME280;26740;45.944;12.480;2024-03-17T01:54:15;101734.59;;;6.88;100.00
40998;BME280;26740;45.944;12.480;2024-03-17T01:56:43;101731.63;;;6.89;100.00
40998;BME280;26740;45.944;12.480;2024-03-17T01:59:09;101731.59;;;6.82;100.00
40998;BME280;26740;45.944;12.480;2024-03-17T02:01:38;101731.59;;;6.82;100.00
40998;BME280;26740;45.944;12.480;2024-03-17T02:04:05;101727.53;;;6.78;100.00
40998;BME280;26740;45.944;12.480;2024-03-17T02:06:31;101732.03;;;6.79;100.00
40998;BME280;26740;45.944;12.480;2024-03-17T02:08:56;101731.16;;;6.79;100.00
40998;BME280;26740;45.944;12.480;2024-03-17T02:11:27;101722.44;;;6.75;100.00
40998;BME280;26740;45.944;12.480;2024-03-17T02:13:53;101729.84;;;6.68;100.00
40998;BME280;26740;45.944;12.480;2024-03-17T02:16:19;101732.59;;;6.68;100.00
40998;BME280;26740;45.944;12.480;2024-03-17T02:18:45;101730.31;;;6.78;100.00
40998;BME280;26740;45.944;12.480;2024-03-17T02:21:14;101730.91;;;6.74;100.00
40998;BME280;26740;45.944;12.480;2024-03-17T02:23:43;101740.03;;;6.68;100.00
40998;BME280;26740;45.944;12.480;2024-03-17T02:26:10;101739.81;;;6.69;100.00
40998;BME280;26740;45.944;12.480;2024-03-17T02:28:44;101739.16;;;6.60;100.00
40998;BME280;26740;45.944;12.480;2024-03-17T02:31:11;101743.78;;;6.53;100.00
40998;BME280;26740;45.944;12.480;2024-03-17T02:33:37;101743.34;;;6.50;100.00
40998;BME280;26740;45.944;12.480;2024-03-17T02:36:04;101743.78;;;6.60;100.00
40998;BME280;26740;45.944;12.480;2024-03-17T02:38:36;101741.88;;;6.54;100.00
40998;BME280;26740;45.944;12.480;2024-03-17T02:41:20;101741.66;;;6.55;100.00
40998;BME280;26740;45.944;12.480;2024-03-17T02:43:46;101745.41;;;6.48;100.00
40998;BME280;26740;45.944;12.480;2024-03-17T02:46:13;101747.13;;;6.49;100.00
40998;BME280;26740;45.944;12.480;2024-03-17T02:48:40;101751.19;;;6.53;100.00
40998;BME280;26740;45.944;12.480;2024-03-17T02:51:15;101742.66;;;6.48;100.00
40998;BME280;26740;45.944;12.480;2024-03-17T02:53:42;101741.47;;;6.57;100.00
40998;BME280;26740;45.944;12.480;2024-03-17T02:56:08;101739.50;;;6.51;100.00
40998;BME280;26740;45.944;12.480;2024-03-17T02:58:35;101741.22;;;6.52;100.00
40998;BME280;26740;45.944;12.480;2024-03-17T03:01:02;101740.97;;;6.47;100.00
40998;BME280;26740;45.944;12.480;2024-03-17T03:03:30;101736.09;;;6.49;100.00
40998;BME280;26740;45.944;12.480;2024-03-17T03:05:56;101730.53;;;6.42;100.00
40998;BME280;26740;45.944;12.480;2024-03-17T03:08:26;101740.69;;;6.35;100.00
40998;BME280;26740;45.944;12.480;2024-03-17T03:10:52;101725.81;;;6.29;100.00
40998;BME280;26740;45.944;12.480;2024-03-17T03:13:17;101728.97;;;6.26;100.00
40998;BME280;26740;45.944;12.480;2024-03-17T03:15:46;101724.06;;;6.21;100.00
40998;BME280;26740;45.944;12.480;2024-03-17T03:18:13;101724.47;;;6.18;100.00
40998;BME280;26740;45.944;12.480;2024-03-17T03:20:39;101723.63;;;6.18;100.00
40998;BME280;26740;45.944;12.480;2024-03-17T03:23:04;101719.53;;;6.14;100.00
40998;BME280;26740;45.944;12.480;2024-03-17T03:25:30;101724.22;;;6.13;100.00
40998;BME280;26740;45.944;12.480;2024-03-17T03:27:55;101726.56;;;6.16;100.00
40998;BME280;26740;45.944;12.480;2024-03-17T03:30:23;101719.34;;;6.15;100.00
40998;BME280;26740;45.944;12.480;2024-03-17T03:32:49;101721.94;;;6.23;100.00
40998;BME280;26740;45.944;12.480;2024-03-17T03:35:15;101716.69;;;6.29;100.00
40998;BME280;26740;45.944;12.480;2024-03-17T03:37:41;101716.44;;;6.23;100.00
40998;BME280;26740;45.944;12.480;2024-03-17T03:40:08;101708.75;;;6.19;100.00
40998;BME280;26740;45.944;12.480;2024-03-17T03:42:43;101710.22;;;6.15;100.00
40998;BME280;26740;45.944;12.480;2024-03-17T03:45:09;101712.59;;;6.18;100.00
40998;BME280;26740;45.944;12.480;2024-03-17T03:47:41;101716.63;;;6.22;100.00
40998;BME280;26740;45.944;12.480;2024-03-17T03:50:11;101711.72;;;6.17;100.00
40998;BME280;26740;45.944;12.480;2024-03-17T03:52:39;101714.66;;;6.16;100.00
40998;BME280;26740;45.944;12.480;2024-03-17T03:55:09;101721.31;;;6.28;100.00
40998;BME280;26740;45.944;12.480;2024-03-17T03:57:43;101720.63;;;6.19;100.00
40998;BME280;26740;45.944;12.480;2024-03-17T04:00:18;101727.41;;;6.17;100.00
40998;BME280;26740;45.944;12.480;2024-03-17T04:02:49;101723.56;;;6.11;100.00
40998;BME280;26740;45.944;12.480;2024-03-17T04:05:20;101734.19;;;6.14;100.00
40998;BME280;26740;45.944;12.480;2024-03-17T04:07:47;101720.38;;;6.07;100.00
40998;BME280;26740;45.944;12.480;2024-03-17T04:10:14;101726.28;;;6.04;100.00
40998;BME280;26740;45.944;12.480;2024-03-17T04:12:41;101715.00;;;5.99;100.00
40998;BME280;26740;45.944;12.480;2024-03-17T04:15:08;101723.47;;;5.98;100.00
40998;BME280;26740;45.944;12.480;2024-03-17T04:17:36;101720.91;;;5.96;100.00
40998;BME280;26740;45.944;12.480;2024-03-17T04:20:02;101726.56;;;5.95;100.00
40998;BME280;26740;45.944;12.480;2024-03-17T04:22:29;101730.03;;;5.97;100.00
40998;BME280;26740;45.944;12.480;2024-03-17T04:24:54;101735.56;;;5.97;100.00
40998;BME280;26740;45.944;12.480;2024-03-17T04:27:26;101735.72;;;5.95;100.00
40998;BME280;26740;45.944;12.480;2024-03-17T04:29:53;101732.25;;;5.86;100.00
40998;BME280;26740;45.944;12.480;2024-03-17T04:32:20;101737.31;;;5.83;100.00
40998;BME280;26740;45.944;12.480;2024-03-17T04:34:45;101741.09;;;5.82;100.00
40998;BME280;26740;45.944;12.480;2024-03-17T04:37:12;101755.41;;;5.92;100.00
40998;BME280;26740;45.944;12.480;2024-03-17T04:39:44;101750.94;;;6.13;100.00
40998;BME280;26740;45.944;12.480;2024-03-17T04:42:14;101748.19;;;5.91;100.00
40998;BME280;26740;45.944;12.480;2024-03-17T04:44:40;101756.81;;;5.81;100.00
40998;BME280;26740;45.944;12.480;2024-03-17T04:47:06;101750.97;;;5.69;100.00
40998;BME280;26740;45.944;12.480;2024-03-17T04:49:40;101755.38;;;5.64;100.00
40998;BME280;26740;45.944;12.480;2024-03-17T04:52:06;101750.69;;;5.64;100.00
40998;BME280;26740;45.944;12.480;2024-03-17T04:54:32;101754.53;;;5.63;100.00
40998;BME280;26740;45.944;12.480;2024-03-17T04:56:58;101753.66;;;5.84;100.00
40998;BME280;26740;45.944;12.480;2024-03-17T04:59:25;101767.25;;;5.86;100.00
40998;BME280;26740;45.944;12.480;2024-03-17T05:01:50;101768.84;;;5.74;100.00
40998;BME280;26740;45.944;12.480;2024-03-17T05:04:17;101771.22;;;5.83;100.00
40998;BME280;26740;45.944;12.480;2024-03-17T05:06:43;101773.66;;;5.72;100.00
40998;BME280;26740;45.944;12.480;2024-03-17T05:09:13;101776.56;;;5.63;100.00
40998;BME280;26740;45.944;12.480;2024-03-17T05:11:39;101776.94;;;5.60;100.00
40998;BME280;26740;45.944;12.480;2024-03-17T05:14:05;101768.03;;;5.58;100.00
40998;BME280;26740;45.944;12.480;2024-03-17T05:16:31;101782.47;;;5.60;100.00
40998;BME280;26740;45.944;12.480;2024-03-17T05:18:56;101783.50;;;5.59;100.00
40998;BME280;26740;45.944;12.480;2024-03-17T05:21:22;101789.88;;;5.60;100.00
40998;BME280;26740;45.944;12.480;2024-03-17T05:23:49;101789.69;;;5.61;100.00
40998;BME280;26740;45.944;12.480;2024-03-17T05:26:15;101777.59;;;5.62;100.00
40998;BME280;26740;45.944;12.480;2024-03-17T05:28:40;101783.31;;;5.61;100.00
40998;BME280;26740;45.944;12.480;2024-03-17T05:31:06;101778.72;;;5.68;100.00
40998;BME280;26740;45.944;12.480;2024-03-17T05:33:32;101793.41;;;5.75;100.00
40998;BME280;26740;45.944;12.480;2024-03-17T05:36:00;101800.50;;;5.84;100.00
40998;BME280;26740;45.944;12.480;2024-03-17T05:38:28;101798.88;;;5.90;100.00
40998;BME280;26740;45.944;12.480;2024-03-17T05:41:07;101803.09;;;5.93;100.00
40998;BME280;26740;45.944;12.480;2024-03-17T05:43:34;101803.75;;;5.95;100.00
40998;BME280;26740;45.944;12.480;2024-03-17T05:46:05;101813.47;;;6.05;100.00
40998;BME280;26740;45.944;12.480;2024-03-17T05:48:33;101814.75;;;6.10;100.00
40998;BME280;26740;45.944;12.480;2024-03-17T05:51:02;101817.63;;;6.23;100.00
40998;BME280;26740;45.944;12.480;2024-03-17T05:53:28;101823.81;;;6.25;100.00
40998;BME280;26740;45.944;12.480;2024-03-17T05:55:53;101832.97;;;6.32;100.00
40998;BME280;26740;45.944;12.480;2024-03-17T05:58:20;101829.47;;;6.45;100.00
40998;BME280;26740;45.944;12.480;2024-03-17T06:00:46;101831.50;;;6.64;100.00
40998;BME280;26740;45.944;12.480;2024-03-17T06:03:12;101835.19;;;6.78;100.00
40998;BME280;26740;45.944;12.480;2024-03-17T06:05:39;101828.22;;;6.82;100.00
40998;BME280;26740;45.944;12.480;2024-03-17T06:08:08;101828.69;;;6.93;100.00
40998;BME280;26740;45.944;12.480;2024-03-17T06:10:35;101832.53;;;6.98;100.00
40998;BME280;26740;45.944;12.480;2024-03-17T06:13:02;101831.19;;;7.22;100.00
40998;BME280;26740;45.944;12.480;2024-03-17T06:15:28;101833.16;;;7.42;100.00
40998;BME280;26740;45.944;12.480;2024-03-17T06:17:54;101835.97;;;7.62;100.00
40998;BME280;26740;45.944;12.480;2024-03-17T06:20:25;101833.03;;;7.77;100.00
40998;BME280;26740;45.944;12.480;2024-03-17T06:22:55;101826.22;;;7.73;100.00
40998;BME280;26740;45.944;12.480;2024-03-17T06:25:22;101840.06;;;7.86;100.00
40998;BME280;26740;45.944;12.480;2024-03-17T06:27:50;101839.25;;;8.06;100.00
40998;BME280;26740;45.944;12.480;2024-03-17T06:30:15;101836.69;;;8.31;100.00
40998;BME280;26740;45.944;12.480;2024-03-17T06:32:42;101841.19;;;8.39;100.00
40998;BME280;26740;45.944;12.480;2024-03-17T06:35:14;101845.22;;;8.69;100.00
40998;BME280;26740;45.944;12.480;2024-03-17T06:37:45;101845.97;;;9.03;100.00
40998;BME280;26740;45.944;12.480;2024-03-17T06:40:13;101852.75;;;9.21;100.00
40998;BME280;26740;45.944;12.480;2024-03-17T06:42:39;101852.56;;;9.61;100.00
40998;BME280;26740;45.944;12.480;2024-03-17T06:45:06;101850.56;;;9.81;100.00
40998;BME280;26740;45.944;12.480;2024-03-17T06:47:37;101858.00;;;10.13;100.00
40998;BME280;26740;45.944;12.480;2024-03-17T06:50:04;101858.81;;;10.52;100.00
40998;BME280;26740;45.944;12.480;2024-03-17T06:52:30;101863.53;;;10.70;100.00
40998;BME280;26740;45.944;12.480;2024-03-17T06:54:57;101860.25;;;11.16;100.00
40998;BME280;26740;45.944;12.480;2024-03-17T06:57:26;101862.47;;;11.63;100.00
40998;BME280;26740;45.944;12.480;2024-03-17T06:59:52;101862.53;;;12.05;100.00
40998;BME280;26740;45.944;12.480;2024-03-17T07:02:17;101859.34;;;12.79;100.00
40998;BME280;26740;45.944;12.480;2024-03-17T07:04:45;101869.84;;;13.24;100.00
40998;BME280;26740;45.944;12.480;2024-03-17T07:07:12;101863.25;;;13.54;100.00
40998;BME280;26740;45.944;12.480;2024-03-17T07:09:38;101861.25;;;13.95;100.00
40998;BME280;26740;45.944;12.480;2024-03-17T07:12:08;101863.63;;;13.87;100.00
40998;BME280;26740;45.944;12.480;2024-03-17T07:14:34;101860.97;;;13.51;100.00
40998;BME280;26740;45.944;12.480;2024-03-17T07:17:00;101865.53;;;13.98;100.00
40998;BME280;26740;45.944;12.480;2024-03-17T07:19:25;101858.09;;;14.37;100.00
40998;BME280;26740;45.944;12.480;2024-03-17T07:21:51;101863.31;;;15.02;100.00
40998;BME280;26740;45.944;12.480;2024-03-17T07:24:16;101874.56;;;15.46;100.00
40998;BME280;26740;45.944;12.480;2024-03-17T07:26:42;101874.97;;;16.63;100.00
40998;BME280;26740;45.944;12.480;2024-03-17T07:29:07;101874.56;;;16.82;100.00
40998;BME280;26740;45.944;12.480;2024-03-17T07:31:36;101878.81;;;16.52;100.00
40998;BME280;26740;45.944;12.480;2024-03-17T07:34:01;101887.31;;;16.62;100.00
40998;BME280;26740;45.944;12.480;2024-03-17T07:36:28;101877.84;;;16.74;100.00
40998;BME280;26740;45.944;12.480;2024-03-17T07:38:53;101874.13;;;16.63;100.00
40998;BME280;26740;45.944;12.480;2024-03-17T07:41:19;101880.66;;;16.74;100.00
40998;BME280;26740;45.944;12.480;2024-03-17T07:43:49;101878.81;;;17.32;100.00
40998;BME280;26740;45.944;12.480;2024-03-17T07:46:15;101873.44;;;17.25;100.00
40998;BME280;26740;45.944;12.480;2024-03-17T07:48:43;101876.28;;;17.99;100.00
40998;BME280;26740;45.944;12.480;2024-03-17T07:51:13;101882.69;;;17.89;100.00
40998;BME280;26740;45.944;12.480;2024-03-17T07:53:39;101881.09;;;18.40;100.00
40998;BME280;26740;45.944;12.480;2024-03-17T07:56:09;101885.91;;;18.85;100.00
40998;BME280;26740;45.944;12.480;2024-03-17T07:58:38;101886.69;;;19.92;94.47
40998;BME280;26740;45.944;12.480;2024-03-17T08:01:05;101889.09;;;19.54;91.32
40998;BME280;26740;45.944;12.480;2024-03-17T08:03:33;101887.28;;;20.34;90.83
40998;BME280;26740;45.944;12.480;2024-03-17T08:06:00;101877.13;;;20.72;87.29
40998;BME280;26740;45.944;12.480;2024-03-17T08:08:26;101878.50;;;21.76;73.63
40998;BME280;26740;45.944;12.480;2024-03-17T08:10:52;101879.06;;;22.17;62.52
40998;BME280;26740;45.944;12.480;2024-03-17T08:13:18;101877.41;;;21.53;64.04
40998;BME280;26740;45.944;12.480;2024-03-17T08:15:45;101878.44;;;20.80;69.76
40998;BME280;26740;45.944;12.480;2024-03-17T08:18:13;101875.13;;;21.26;74.75
40998;BME280;26740;45.944;12.480;2024-03-17T08:20:40;101870.56;;;23.01;57.11
40998;BME280;26740;45.944;12.480;2024-03-17T08:23:06;101871.38;;;22.88;56.01
40998;BME280;26740;45.944;12.480;2024-03-17T08:25:34;101874.09;;;22.08;60.03
40998;BME280;26740;45.944;12.480;2024-03-17T08:28:01;101882.00;;;22.63;61.43
40998;BME280;26740;45.944;12.480;2024-03-17T08:30:28;101877.91;;;22.69;55.73
40998;BME280;26740;45.944;12.480;2024-03-17T08:32:54;101887.16;;;23.08;52.45
40998;BME280;26740;45.944;12.480;2024-03-17T08:35:19;101884.47;;;23.44;52.92
40998;BME280;26740;45.944;12.480;2024-03-17T08:37:46;101876.34;;;22.25;57.07
40998;BME280;26740;45.944;12.480;2024-03-17T08:40:11;101876.34;;;22.25;60.23
40998;BME280;26740;45.944;12.480;2024-03-17T08:42:37;101881.84;;;23.34;53.85
40998;BME280;26740;45.944;12.480;2024-03-17T08:45:03;101878.28;;;23.15;54.82
40998;BME280;26740;45.944;12.480;2024-03-17T08:47:29;101868.13;;;22.81;56.25
40998;BME280;26740;45.944;12.480;2024-03-17T08:49:55;101877.00;;;22.74;54.08
40998;BME280;26740;45.944;12.480;2024-03-17T08:52:20;101873.34;;;23.34;55.39
40998;BME280;26740;45.944;12.480;2024-03-17T08:54:47;101868.09;;;23.27;53.38
40998;BME280;26740;45.944;12.480;2024-03-17T08:57:13;101866.81;;;22.59;56.02
40998;BME280;26740;45.944;12.480;2024-03-17T08:59:38;101865.16;;;23.60;52.66
40998;BME280;26740;45.944;12.480;2024-03-17T09:02:04;101869.47;;;24.45;49.20
40998;BME280;26740;45.944;12.480;2024-03-17T09:04:31;101870.09;;;24.41;48.80
40998;BME280;26740;45.944;12.480;2024-03-17T09:06:57;101856.22;;;23.53;53.89
40998;BME280;26740;45.944;12.480;2024-03-17T09:09:24;101862.91;;;24.58;48.67
40998;BME280;26740;45.944;12.480;2024-03-17T09:11:49;101858.72;;;24.19;57.01
40998;BME280;26740;45.944;12.480;2024-03-17T09:14:16;101848.84;;;22.12;61.19
40998;BME280;26740;45.944;12.480;2024-03-17T09:16:42;101852.66;;;23.06;53.85
40998;BME280;26740;45.944;12.480;2024-03-17T09:19:08;101852.97;;;23.18;54.75
40998;BME280;26740;45.944;12.480;2024-03-17T09:21:34;101849.63;;;23.58;50.63
40998;BME280;26740;45.944;12.480;2024-03-17T09:24:00;101852.66;;;24.71;47.52
40998;BME280;26740;45.944;12.480;2024-03-17T09:26:25;101854.94;;;24.69;45.80
40998;BME280;26740;45.944;12.480;2024-03-17T09:28:51;101859.38;;;24.16;49.58
40998;BME280;26740;45.944;12.480;2024-03-17T09:31:16;101849.75;;;24.62;47.73
40998;BME280;26740;45.944;12.480;2024-03-17T09:33:42;101852.44;;;24.45;50.32
40998;BME280;26740;45.944;12.480;2024-03-17T09:36:09;101853.53;;;24.35;46.45
40998;BME280;26740;45.944;12.480;2024-03-17T09:38:38;101849.47;;;23.91;47.85
40998;BME280;26740;45.944;12.480;2024-03-17T09:41:05;101853.06;;;24.41;51.40
40998;BME280;26740;45.944;12.480;2024-03-17T09:43:35;101844.66;;;24.14;48.18
40998;BME280;26740;45.944;12.480;2024-03-17T09:46:05;101843.97;;;24.08;49.97
40998;BME280;26740;45.944;12.480;2024-03-17T09:48:31;101836.00;;;22.39;58.61
40998;BME280;26740;45.944;12.480;2024-03-17T09:51:03;101836.47;;;23.90;52.71
40998;BME280;26740;45.944;12.480;2024-03-17T09:53:37;101837.31;;;24.81;51.38
40998;BME280;26740;45.944;12.480;2024-03-17T09:56:10;101837.91;;;25.31;49.63
40998;BME280;26740;45.944;12.480;2024-03-17T09:58:40;101837.22;;;24.63;49.34
40998;BME280;26740;45.944;12.480;2024-03-17T10:01:06;101834.56;;;23.85;51.33
40998;BME280;26740;45.944;12.480;2024-03-17T10:03:50;101830.53;;;24.00;50.51
40998;BME280;26740;45.944;12.480;2024-03-17T10:06:18;101826.69;;;23.68;51.63
40998;BME280;26740;45.944;12.480;2024-03-17T10:08:46;101817.19;;;24.46;54.70
40998;BME280;26740;45.944;12.480;2024-03-17T10:11:13;101810.81;;;24.94;48.45
40998;BME280;26740;45.944;12.480;2024-03-17T10:13:39;101813.97;;;24.16;48.46
40998;BME280;26740;45.944;12.480;2024-03-17T10:16:05;101805.94;;;22.89;55.36
40998;BME280;26740;45.944;12.480;2024-03-17T10:18:30;101809.06;;;22.88;55.17
40998;BME280;26740;45.944;12.480;2024-03-17T10:20:56;101808.91;;;23.12;56.33
40998;BME280;26740;45.944;12.480;2024-03-17T10:23:24;101811.38;;;23.83;56.84
40998;BME280;26740;45.944;12.480;2024-03-17T10:25:50;101814.84;;;23.52;52.98
40998;BME280;26740;45.944;12.480;2024-03-17T10:28:17;101810.19;;;23.84;59.62
40998;BME280;26740;45.944;12.480;2024-03-17T10:30:58;101822.47;;;23.79;56.09
40998;BME280;26740;45.944;12.480;2024-03-17T10:33:25;101815.53;;;23.85;54.83
40998;BME280;26740;45.944;12.480;2024-03-17T10:35:58;101812.28;;;23.14;52.86
40998;BME280;26740;45.944;12.480;2024-03-17T10:38:26;101802.31;;;22.56;57.34
40998;BME280;26740;45.944;12.480;2024-03-17T10:40:53;101791.25;;;23.43;58.37
40998;BME280;26740;45.944;12.480;2024-03-17T10:43:18;101796.88;;;23.84;59.05
40998;BME280;26740;45.944;12.480;2024-03-17T10:45:51;101800.63;;;23.94;51.84
40998;BME280;26740;45.944;12.480;2024-03-17T10:48:19;101805.09;;;23.58;55.90
40998;BME280;26740;45.944;12.480;2024-03-17T10:50:46;101799.03;;;23.23;56.53
40998;BME280;26740;45.944;12.480;2024-03-17T10:53:14;101800.25;;;21.91;60.56
40998;BME280;26740;45.944;12.480;2024-03-17T10:56:13;101802.44;;;22.13;58.41
40998;BME280;26740;45.944;12.480;2024-03-17T10:58:44;101788.72;;;21.68;58.70
40998;BME280;26740;45.944;12.480;2024-03-17T11:01:14;101783.59;;;21.89;61.77
40998;BME280;26740;45.944;12.480;2024-03-17T11:03:40;101787.47;;;22.12;58.18
40998;BME280;26740;45.944;12.480;2024-03-17T11:06:07;101787.69;;;21.16;58.82
40998;BME280;26740;45.944;12.480;2024-03-17T11:08:34;101788.00;;;20.61;67.57
40998;BME280;26740;45.944;12.480;2024-03-17T11:11:01;101779.06;;;19.85;65.16
40998;BME280;26740;45.944;12.480;2024-03-17T11:13:30;101788.91;;;20.56;68.10
40998;BME280;26740;45.944;12.480;2024-03-17T11:15:57;101769.25;;;20.99;63.87
40998;BME280;26740;45.944;12.480;2024-03-17T11:20:59;101762.13;;;21.07;65.47
40998;BME280;26740;45.944;12.480;2024-03-17T11:23:30;101764.00;;;21.36;60.54
40998;BME280;26740;45.944;12.480;2024-03-17T11:25:57;101759.47;;;20.92;63.96
40998;BME280;26740;45.944;12.480;2024-03-17T11:33:59;101761.97;;;21.17;76.46
40998;BME280;26740;45.944;12.480;2024-03-17T11:39:07;101738.97;;;21.05;72.60
40998;BME280;26740;45.944;12.480;2024-03-17T11:41:46;101737.84;;;21.06;66.34
40998;BME280;26740;45.944;12.480;2024-03-17T11:46:56;101730.59;;;20.76;71.28
40998;BME280;26740;45.944;12.480;2024-03-17T11:49:28;101737.81;;;20.63;72.20
40998;BME280;26740;45.944;12.480;2024-03-17T11:52:05;101741.47;;;20.29;78.69
40998;BME280;26740;45.944;12.480;2024-03-17T11:54:35;101733.75;;;20.11;75.85
40998;BME280;26740;45.944;12.480;2024-03-17T11:57:03;101732.50;;;19.93;79.59
40998;BME280;26740;45.944;12.480;2024-03-17T11:59:29;101735.34;;;20.22;76.08
40998;BME280;26740;45.944;12.480;2024-03-17T12:01:55;101726.50;;;20.34;78.00
40998;BME280;26740;45.944;12.480;2024-03-17T12:04:23;101726.50;;;20.34;85.46
40998;BME280;26740;45.944;12.480;2024-03-17T12:06:50;101725.47;;;20.24;72.62
40998;BME280;26740;45.944;12.480;2024-03-17T12:12:01;101721.56;;;20.15;81.09
40998;BME280;26740;45.944;12.480;2024-03-17T12:14:28;101707.34;;;20.01;82.65
40998;BME280;26740;45.944;12.480;2024-03-17T12:17:20;101698.28;;;20.34;79.50
40998;BME280;26740;45.944;12.480;2024-03-17T12:19:47;101705.88;;;20.38;75.87
40998;BME280;26740;45.944;12.480;2024-03-17T12:22:17;101689.97;;;20.18;76.74
40998;BME280;26740;45.944;12.480;2024-03-17T12:24:48;101691.06;;;19.93;76.47
40998;BME280;26740;45.944;12.480;2024-03-17T12:27:19;101688.31;;;19.83;81.84
40998;BME280;26740;45.944;12.480;2024-03-17T12:29:46;101687.09;;;19.55;78.33
40998;BME280;26740;45.944;12.480;2024-03-17T12:32:15;101675.47;;;19.66;78.09
40998;BME280;26740;45.944;12.480;2024-03-17T12:34:43;101674.91;;;19.69;79.86
40998;BME280;26740;45.944;12.480;2024-03-17T12:37:15;101678.25;;;19.77;80.66
40998;BME280;26740;45.944;12.480;2024-03-17T12:39:41;101659.75;;;20.24;83.96
40998;BME280;26740;45.944;12.480;2024-03-17T12:42:07;101664.22;;;20.78;77.77
40998;BME280;26740;45.944;12.480;2024-03-17T12:47:03;101657.84;;;20.92;67.99
40998;BME280;26740;45.944;12.480;2024-03-17T12:49:31;101647.22;;;20.83;69.63
40998;BME280;26740;45.944;12.480;2024-03-17T12:51:57;101654.00;;;20.34;72.51
40998;BME280;26740;45.944;12.480;2024-03-17T12:54:26;101644.06;;;20.66;74.11
40998;BME280;26740;45.944;12.480;2024-03-17T12:57:08;101644.38;;;20.83;68.23
40998;BME280;26740;45.944;12.480;2024-03-17T12:59:53;101630.66;;;20.96;68.23